Terminal Aerodrome Forecast
Issued by NWS Melbourne, FL

Home | Current Version | Previous Version | Text Only | Print | Product List | Glossary On
Versions: 1 2 3 4 5 6 7 8 9 10 11 12 13 14 15 16 17 18 19 20 21 22 23 24 25 26 27
000
FTUS42 KMLB 201740
TAFMCO
TAF
KMCO 201740Z 2018/2118 10009KT P6SM VCTS SCT035CB SCT150 BKN200
      TEMPO 2020/2023 VRB15G25KT 3SM TSRA BKN025CB
     FM210000 10005KT P6SM VCSH FEW020 SCT110 OVC150
     FM210400 09003KT P6SM SCT080 BKN120
     FM211500 10007KT P6SM SCT030 SCT120=

USA.gov is the U.S. government's official web portal to all federal, state and local government web resources and services.